地図

経路データ

SID SEASON NUMBER BASIN SUBBASIN NAME ISO_TIME NATURE LAT LON WMO_WIND WMO_PRES WMO_AGENCY TRACK_TYPE DIST2LAND LANDFALL IFLAG USA_AGENCY USA_ATCF_ID USA_LAT USA_LON USA_RECORD USA_STATUS USA_WIND USA_PRES USA_SSHS USA_R34_NE USA_R34_SE USA_R34_SW USA_R34_NW USA_R50_NE USA_R50_SE USA_R50_SW USA_R50_NW USA_R64_NE USA_R64_SE USA_R64_SW USA_R64_NW USA_POCI USA_ROCI USA_RMW USA_EYE TOKYO_LAT TOKYO_LON TOKYO_GRADE TOKYO_WIND TOKYO_PRES TOKYO_R50_DIR TOKYO_R50_LONG TOKYO_R50_SHORT TOKYO_R30_DIR TOKYO_R30_LONG TOKYO_R30_SHORT TOKYO_LAND CMA_LAT CMA_LON CMA_CAT CMA_WIND CMA_PRES HKO_LAT HKO_LON HKO_CAT HKO_WIND HKO_PRES NEWDELHI_LAT NEWDELHI_LON NEWDELHI_GRADE NEWDELHI_WIND NEWDELHI_PRES NEWDELHI_CI NEWDELHI_DP NEWDELHI_POCI REUNION_LAT REUNION_LON REUNION_TYPE REUNION_WIND REUNION_PRES REUNION_TNUM REUNION_CI REUNION_RMW REUNION_R34_NE REUNION_R34_SE REUNION_R34_SW REUNION_R34_NW REUNION_R50_NE REUNION_R50_SE REUNION_R50_SW REUNION_R50_NW REUNION_R64_NE REUNION_R64_SE REUNION_R64_SW REUNION_R64_NW BOM_LAT BOM_LON BOM_TYPE BOM_WIND BOM_PRES BOM_TNUM BOM_CI BOM_RMW BOM_R34_NE BOM_R34_SE BOM_R34_SW BOM_R34_NW BOM_R50_NE BOM_R50_SE BOM_R50_SW BOM_R50_NW BOM_R64_NE BOM_R64_SE BOM_R64_SW BOM_R64_NW BOM_ROCI BOM_POCI BOM_EYE BOM_POS_METHOD BOM_PRES_METHOD NADI_LAT NADI_LON NADI_CAT NADI_WIND NADI_PRES WELLINGTON_LAT WELLINGTON_LON WELLINGTON_WIND WELLINGTON_PRES DS824_LAT DS824_LON DS824_STAGE DS824_WIND DS824_PRES TD9636_LAT TD9636_LON TD9636_STAGE TD9636_WIND TD9636_PRES TD9635_LAT TD9635_LON TD9635_WIND TD9635_PRES TD9635_ROCI NEUMANN_LAT NEUMANN_LON NEUMANN_CLASS NEUMANN_WIND NEUMANN_PRES MLC_LAT MLC_LON MLC_CLASS MLC_WIND MLC_PRES USA_GUST BOM_GUST BOM_GUST_PER REUNION_GUST REUNION_GUST_PER USA_SEAHGT USA_SEARAD_NE USA_SEARAD_SE USA_SEARAD_SW USA_SEARAD_NW STORM_SPEED STORM_DIR
1905265N13127 1905 41 WP MM NOT_NAMED 1905-09-21 16:00:00 NR 12.7000 126.900 main 162 85 __________O___ -1 12.7000 126.900 2 25 274
1905265N13127 1905 41 WP MM NOT_NAMED 1905-09-21 18:00:00 NR 12.7532 126.041 main 86 33 __________P___ -1 12.7532 126.041 2 25 273
1905265N13127 1905 41 WP MM NOT_NAMED 1905-09-21 21:00:00 NR 12.8226 124.780 main 35 0 __________P___ -1 12.8226 124.780 2 24 273
1905265N13127 1905 41 WP MM NOT_NAMED 1905-09-22 00:00:00 NR 12.8732 123.592 main 0 10 __________P___ -1 12.8732 123.592 2 22 272
1905265N13127 1905 41 WP MM NOT_NAMED 1905-09-22 03:00:00 NR 12.8983 122.522 main 35 35 __________P___ -1 12.8983 122.522 2 20 271
1905265N13127 1905 41 WP MM NOT_NAMED 1905-09-22 04:00:00 NR 12.9000 122.200 main 54 10 __________O___ -1 12.9000 122.200 2 18 270
1905265N13127 1905 41 WP MM NOT_NAMED 1905-09-22 06:00:00 NR 12.8936 121.611 main 10 0 __________P___ -1 12.8936 121.611 2 16 269
1905265N13127 1905 41 WP MM NOT_NAMED 1905-09-22 09:00:00 NR 12.8728 120.841 main 0 0 __________P___ -1 12.8728 120.841 2 14 269
1905265N13127 1905 41 WP MM NOT_NAMED 1905-09-22 12:00:00 NR 12.8607 120.161 main 46 54 __________P___ -1 12.8607 120.161 2 13 270
1905265N13127 1905 41 WP MM NOT_NAMED 1905-09-22 15:00:00 NR 12.8816 119.516 main 103 103 __________P___ -1 12.8816 119.516 2 13 273
1905265N13127 1905 41 WP MM NOT_NAMED 1905-09-22 16:00:00 NR 12.9000 119.300 main 121 121 __________O___ -1 12.9000 119.300 2 14 277
1905265N13127 1905 41 WP MM NOT_NAMED 1905-09-22 18:00:00 NR 12.9654 118.820 main 168 168 __________P___ -1 12.9654 118.820 2 14 280
1905265N13127 1905 41 WP MM NOT_NAMED 1905-09-22 21:00:00 NR 13.1017 118.106 main 240 240 __________P___ -1 13.1017 118.106 2 14 282
1905265N13127 1905 41 WP MM NOT_NAMED 1905-09-23 00:00:00 NR 13.2670 117.405 main 314 314 __________P___ -1 13.2670 117.405 2 14 284
1905265N13127 1905 41 WP MM NOT_NAMED 1905-09-23 03:00:00 NR 13.4425 116.722 main 383 389 __________P___ -1 13.4425 116.722 2 14 285
1905265N13127 1905 41 WP MM NOT_NAMED 1905-09-23 04:00:00 NR 13.5000 116.500 main 407 407 __________O___ -1 13.5000 116.500 2 13 283
1905265N13127 1905 41 WP MM NOT_NAMED 1905-09-23 06:00:00 NR 13.5970 116.058 main 448 456 __________P___ -1 13.5970 116.058 2 13 283
1905265N13127 1905 41 WP MM NOT_NAMED 1905-09-23 09:00:00 NR 13.7427 115.414 main 516 516 __________P___ -1 13.7427 115.414 2 13 283
1905265N13127 1905 41 WP MM NOT_NAMED 1905-09-23 12:00:00 NR 13.8916 114.793 main 573 523 __________P___ -1 13.8916 114.793 2 12 284
1905265N13127 1905 41 WP MM NOT_NAMED 1905-09-23 15:00:00 NR 14.0465 114.194 main 523 505 __________P___ -1 14.0465 114.194 2 12 285
1905265N13127 1905 41 WP MM NOT_NAMED 1905-09-23 16:00:00 NR 14.1000 114.000 main 505 465 __________O___ -1 14.1000 114.000 2 12 286
1905265N13127 1905 41 WP MM NOT_NAMED 1905-09-23 18:00:00 NR 14.2025 113.624 main 465 412 __________P___ -1 14.2025 113.624 2 11 286
1905265N13127 1905 41 WP MM NOT_NAMED 1905-09-23 21:00:00 NR 14.3627 113.079 main 413 351 __________P___ -1 14.3627 113.079 2 11 288
1905265N13127 1905 41 WP MM NOT_NAMED 1905-09-24 00:00:00 NR 14.5365 112.540 main 351 304 __________P___ -1 14.5365 112.540 2 11 289
1905265N13127 1905 41 WP MM NOT_NAMED 1905-09-24 03:00:00 NR 14.7300 111.989 main 304 287 __________P___ -1 14.7300 111.989 2 11 290
1905265N13127 1905 41 WP MM NOT_NAMED 1905-09-24 04:00:00 NR 14.8000 111.800 main 287 248 __________O___ -1 14.8000 111.800 2 12 290
1905265N13127 1905 41 WP MM NOT_NAMED 1905-09-24 06:00:00 NR 14.9443 111.390 main 248 191 __________P___ -1 14.9443 111.390 2 13 291
1905265N13127 1905 41 WP MM NOT_NAMED 1905-09-24 09:00:00 NR 15.1797 110.756 main 191 130 __________P___ -1 15.1797 110.756 2 13 292
1905265N13127 1905 41 WP MM NOT_NAMED 1905-09-24 12:00:00 NR 15.4347 110.118 main 130 85 __________P___ -1 15.4347 110.118 2 13 293
1905265N13127 1905 41 WP MM NOT_NAMED 1905-09-24 15:00:00 NR 15.7063 109.499 main 85 77 __________P___ -1 15.7063 109.499 2 13 295
1905265N13127 1905 41 WP MM NOT_NAMED 1905-09-24 16:00:00 NR 15.8000 109.300 main 77 57 __________O___ -1 15.8000 109.300 2 13 297
1905265N13127 1905 41 WP MM NOT_NAMED 1905-09-24 18:00:00 NR 15.9916 108.918 main 57 30 __________P___ -1 15.9916 108.918 2 12 299
1905265N13127 1905 41 WP MM NOT_NAMED 1905-09-24 21:00:00 NR 16.2875 108.377 main 33 15 __________P___ -1 16.2875 108.377 2 12 301
1905265N13127 1905 41 WP MM NOT_NAMED 1905-09-25 00:00:00 NR 16.5906 107.864 main 24 10 __________P___ -1 16.5906 107.864 2 11 302
1905265N13127 1905 41 WP MM NOT_NAMED 1905-09-25 03:00:00 NR 16.8975 107.365 main 15 10 __________P___ -1 16.8975 107.365 2 11 303
1905265N13127 1905 41 WP MM NOT_NAMED 1905-09-25 04:00:00 NR 17.0000 107.200 main 10 __________O___ -1 17.0000 107.200 2 11 303

デジタル台風データ・検索

IBTrACS Databaseについて

本データベースは、米国NOAAが公開する1842年以降の世界の熱帯低気圧のベストトラックデータアーカイブInternational Best Track Archive for Climate Stewardship (IBTrACS)を、ウェブで閲覧しやすい形式に変換したものです。

最終更新日:2021-12-03